首页
METAR-TAF:

METAR-TAF

机场 :

加濟安泰普, 土耳其

纬度: 37-05N, 经度: 037-22E, 海拔: 701米

当前天气观测

该预报发布于36分钟前的01:20 UTC
静风
温度 -3°C
湿度 80%
气压 1015 hPa
能见度10公里或以上
1500米以下无云,无积雨云

METAR: LTAJ 230120Z 00000KT CAVOK M03/M06 Q1015 NOSIG RMK RWY10 VRB01KT

时间: 04:56 (01:56 UTC)

预报

该预报发布于3小时和16分钟前的22:40 UTC
预报有效从23日的 00点(UTC)到 23日的 24点(UTC)
风速2节,风向多变
能见度10公里或以上
1500米以下无云,无积雨云
成为
从 23日的 05点(UTC)到 23日的 07点(UTC)
风速12节,风向西
成为
从 23日的 11点(UTC)到 23日的 13点(UTC)
少量云层高于4000英尺
多云层高于10000英尺
成为
从 23日的 16点(UTC)到 23日的 18点(UTC)
风速10节,风向北转西北
成为
从 23日的 21点(UTC)到 23日的 23点(UTC)
风速20节,风向

TAF: LTAJ 222240Z 2300/2324 VRB02KT CAVOK BECMG 2305/2307 27012KT BECMG 2311/2313 FEW040 BKN100 BECMG 2316/2318 33010KT BECMG 2321/2323 35020KT

超过4000个机场的气象观测和天气预报(METAR&TAF报告)。

可查询的气象台以黄色和红色小点在地图上表示。

将鼠标移到小点上方,可查看气象台名称。

然后点击查看天气观测和预报。

如需切换地图:点击带黑十字的绿色按钮放大地图;点击带横线的绿色按钮缩小地图;或者点击绿色箭头查看邻近地区的地图。


METAR-TAF: